sensor_id;sensor_type;location;lat;lon;timestamp;P1;durP1;ratioP1;P2;durP2;ratioP2
40449;SDS011;41787;53.570;10.032;2023-02-15T00:01:09;122.82;;;42.58;;
40449;SDS011;41787;53.570;10.032;2023-02-15T00:03:36;123.32;;;41.35;;
40449;SDS011;41787;53.570;10.032;2023-02-15T00:06:03;194.55;;;42.97;;
40449;SDS011;41787;53.570;10.032;2023-02-15T00:08:30;188.60;;;43.90;;
40449;SDS011;41787;53.570;10.032;2023-02-15T00:11:05;162.55;;;43.45;;
40449;SDS011;41787;53.570;10.032;2023-02-15T00:13:31;136.82;;;41.75;;
40449;SDS011;41787;53.570;10.032;2023-02-15T00:16:01;163.35;;;43.50;;
40449;SDS011;41787;53.570;10.032;2023-02-15T00:18:27;135.80;;;43.95;;
40449;SDS011;41787;53.570;10.032;2023-02-15T00:20:53;106.20;;;42.67;;
40449;SDS011;41787;53.570;10.032;2023-02-15T00:23:19;113.63;;;41.85;;
40449;SDS011;41787;53.570;10.032;2023-02-15T00:25:45;99.47;;;39.95;;
40449;SDS011;41787;53.570;10.032;2023-02-15T00:28:11;117.22;;;40.45;;
40449;SDS011;41787;53.570;10.032;2023-02-15T00:30:37;99.82;;;40.55;;
40449;SDS011;41787;53.570;10.032;2023-02-15T00:33:03;101.72;;;38.45;;
40449;SDS011;41787;53.570;10.032;2023-02-15T00:35:29;136.07;;;41.22;;
40449;SDS011;41787;53.570;10.032;2023-02-15T00:37:55;135.20;;;42.13;;
40449;SDS011;41787;53.570;10.032;2023-02-15T00:40:21;130.35;;;39.63;;
40449;SDS011;41787;53.570;10.032;2023-02-15T00:42:48;103.70;;;41.17;;
40449;SDS011;41787;53.570;10.032;2023-02-15T00:45:14;107.45;;;39.67;;
40449;SDS011;41787;53.570;10.032;2023-02-15T00:47:40;110.25;;;39.97;;
40449;SDS011;41787;53.570;10.032;2023-02-15T00:50:06;129.80;;;50.03;;
40449;SDS011;41787;53.570;10.032;2023-02-15T00:52:32;179.73;;;58.53;;
40449;SDS011;41787;53.570;10.032;2023-02-15T00:54:58;168.52;;;59.50;;
40449;SDS011;41787;53.570;10.032;2023-02-15T00:57:24;160.02;;;57.65;;
40449;SDS011;41787;53.570;10.032;2023-02-15T00:59:50;134.88;;;53.80;;
40449;SDS011;41787;53.570;10.032;2023-02-15T01:02:16;160.00;;;57.63;;
40449;SDS011;41787;53.570;10.032;2023-02-15T01:04:42;179.98;;;61.30;;
40449;SDS011;41787;53.570;10.032;2023-02-15T01:07:08;215.45;;;77.53;;
40449;SDS011;41787;53.570;10.032;2023-02-15T01:09:34;196.98;;;82.90;;
40449;SDS011;41787;53.570;10.032;2023-02-15T01:12:00;196.82;;;74.63;;
40449;SDS011;41787;53.570;10.032;2023-02-15T01:14:26;190.82;;;67.43;;
40449;SDS011;41787;53.570;10.032;2023-02-15T01:16:52;178.25;;;55.70;;
40449;SDS011;41787;53.570;10.032;2023-02-15T01:19:18;138.63;;;47.17;;
40449;SDS011;41787;53.570;10.032;2023-02-15T01:21:44;125.10;;;46.92;;
40449;SDS011;41787;53.570;10.032;2023-02-15T01:24:11;110.93;;;45.25;;
40449;SDS011;41787;53.570;10.032;2023-02-15T01:26:37;114.22;;;46.10;;
40449;SDS011;41787;53.570;10.032;2023-02-15T01:29:03;138.55;;;42.00;;
40449;SDS011;41787;53.570;10.032;2023-02-15T01:31:29;107.63;;;40.72;;
40449;SDS011;41787;53.570;10.032;2023-02-15T01:33:55;111.63;;;42.33;;
40449;SDS011;41787;53.570;10.032;2023-02-15T01:36:21;115.25;;;40.55;;
40449;SDS011;41787;53.570;10.032;2023-02-15T01:38:47;104.90;;;39.63;;
40449;SDS011;41787;53.570;10.032;2023-02-15T01:41:14;106.57;;;41.38;;
40449;SDS011;41787;53.570;10.032;2023-02-15T01:43:52;118.65;;;41.13;;
40449;SDS011;41787;53.570;10.032;2023-02-15T01:46:19;105.95;;;39.70;;
40449;SDS011;41787;53.570;10.032;2023-02-15T01:48:50;92.13;;;39.72;;
40449;SDS011;41787;53.570;10.032;2023-02-15T01:51:17;130.95;;;39.92;;
40449;SDS011;41787;53.570;10.032;2023-02-15T01:53:47;103.72;;;39.47;;
40449;SDS011;41787;53.570;10.032;2023-02-15T01:56:18;110.00;;;39.65;;
40449;SDS011;41787;53.570;10.032;2023-02-15T01:58:45;99.63;;;38.88;;
40449;SDS011;41787;53.570;10.032;2023-02-15T02:01:12;95.88;;;37.90;;
40449;SDS011;41787;53.570;10.032;2023-02-15T02:03:42;94.55;;;37.55;;
40449;SDS011;41787;53.570;10.032;2023-02-15T02:06:09;94.43;;;37.83;;
40449;SDS011;41787;53.570;10.032;2023-02-15T02:08:35;111.68;;;40.30;;
40449;SDS011;41787;53.570;10.032;2023-02-15T02:11:01;116.40;;;37.45;;
40449;SDS011;41787;53.570;10.032;2023-02-15T02:13:28;99.38;;;39.72;;
40449;SDS011;41787;53.570;10.032;2023-02-15T02:26:10;102.68;;;37.78;;
40449;SDS011;41787;53.570;10.032;2023-02-15T02:42:00;113.50;;;38.22;;
40449;SDS011;41787;53.570;10.032;2023-02-15T02:44:29;86.68;;;37.08;;
40449;SDS011;41787;53.570;10.032;2023-02-15T02:49:37;124.50;;;41.58;;
40449;SDS011;41787;53.570;10.032;2023-02-15T02:52:31;98.47;;;38.63;;
40449;SDS011;41787;53.570;10.032;2023-02-15T02:54:52;105.32;;;40.30;;
40449;SDS011;41787;53.570;10.032;2023-02-15T02:57:19;106.07;;;37.35;;
40449;SDS011;41787;53.570;10.032;2023-02-15T02:59:46;111.20;;;40.58;;
40449;SDS011;41787;53.570;10.032;2023-02-15T03:02:15;118.30;;;39.83;;
40449;SDS011;41787;53.570;10.032;2023-02-15T03:04:45;107.13;;;41.23;;
40449;SDS011;41787;53.570;10.032;2023-02-15T03:07:16;101.57;;;39.88;;
40449;SDS011;41787;53.570;10.032;2023-02-15T03:09:47;106.30;;;41.00;;
40449;SDS011;41787;53.570;10.032;2023-02-15T03:12:16;111.88;;;39.80;;
40449;SDS011;41787;53.570;10.032;2023-02-15T03:14:44;99.40;;;39.30;;
40449;SDS011;41787;53.570;10.032;2023-02-15T03:17:11;116.72;;;38.78;;
40449;SDS011;41787;53.570;10.032;2023-02-15T03:19:38;108.82;;;38.47;;
40449;SDS011;41787;53.570;10.032;2023-02-15T03:22:12;92.95;;;38.83;;
40449;SDS011;41787;53.570;10.032;2023-02-15T03:24:41;101.72;;;38.42;;
40449;SDS011;41787;53.570;10.032;2023-02-15T03:27:12;106.82;;;40.15;;
40449;SDS011;41787;53.570;10.032;2023-02-15T03:29:42;95.63;;;39.33;;
40449;SDS011;41787;53.570;10.032;2023-02-15T03:32:09;152.80;;;40.25;;
40449;SDS011;41787;53.570;10.032;2023-02-15T03:34:36;107.15;;;40.05;;
40449;SDS011;41787;53.570;10.032;2023-02-15T03:39:48;104.97;;;38.60;;
40449;SDS011;41787;53.570;10.032;2023-02-15T03:42:17;105.95;;;37.35;;
40449;SDS011;41787;53.570;10.032;2023-02-15T03:47:17;91.03;;;36.05;;
40449;SDS011;41787;53.570;10.032;2023-02-15T03:49:58;78.72;;;33.35;;
40449;SDS011;41787;53.570;10.032;2023-02-15T03:52:26;87.80;;;34.05;;
40449;SDS011;41787;53.570;10.032;2023-02-15T03:54:53;92.50;;;34.30;;
40449;SDS011;41787;53.570;10.032;2023-02-15T03:57:21;75.97;;;34.45;;
40449;SDS011;41787;53.570;10.032;2023-02-15T04:05:23;85.43;;;35.72;;
40449;SDS011;41787;53.570;10.032;2023-02-15T04:07:49;115.18;;;35.35;;
40449;SDS011;41787;53.570;10.032;2023-02-15T04:10:15;91.30;;;35.78;;
40449;SDS011;41787;53.570;10.032;2023-02-15T04:13:16;81.40;;;34.08;;
40449;SDS011;41787;53.570;10.032;2023-02-15T04:15:45;87.57;;;35.38;;
40449;SDS011;41787;53.570;10.032;2023-02-15T04:21:14;88.35;;;35.70;;
40449;SDS011;41787;53.570;10.032;2023-02-15T04:23:59;104.10;;;32.00;;
40449;SDS011;41787;53.570;10.032;2023-02-15T04:26:44;127.15;;;33.90;;
40449;SDS011;41787;53.570;10.032;2023-02-15T04:29:10;74.68;;;32.92;;
40449;SDS011;41787;53.570;10.032;2023-02-15T04:31:36;95.50;;;33.20;;
40449;SDS011;41787;53.570;10.032;2023-02-15T04:34:02;78.78;;;32.15;;
40449;SDS011;41787;53.570;10.032;2023-02-15T04:36:28;86.53;;;32.67;;
40449;SDS011;41787;53.570;10.032;2023-02-15T04:38:54;65.70;;;30.67;;
40449;SDS011;41787;53.570;10.032;2023-02-15T04:41:20;80.60;;;34.10;;
40449;SDS011;41787;53.570;10.032;2023-02-15T04:43:46;75.97;;;33.33;;
40449;SDS011;41787;53.570;10.032;2023-02-15T04:46:12;94.78;;;34.35;;
40449;SDS011;41787;53.570;10.032;2023-02-15T04:48:38;83.88;;;31.85;;
40449;SDS011;41787;53.570;10.032;2023-02-15T04:51:05;84.22;;;32.85;;
40449;SDS011;41787;53.570;10.032;2023-02-15T04:53:32;72.95;;;31.45;;
40449;SDS011;41787;53.570;10.032;2023-02-15T04:55:58;75.72;;;32.42;;
40449;SDS011;41787;53.570;10.032;2023-02-15T04:58:24;94.38;;;31.90;;
40449;SDS011;41787;53.570;10.032;2023-02-15T05:00:49;80.95;;;33.38;;
40449;SDS011;41787;53.570;10.032;2023-02-15T05:03:16;74.53;;;32.45;;
40449;SDS011;41787;53.570;10.032;2023-02-15T05:05:42;98.57;;;34.38;;
40449;SDS011;41787;53.570;10.032;2023-02-15T05:08:08;80.35;;;34.15;;
40449;SDS011;41787;53.570;10.032;2023-02-15T05:10:34;98.28;;;33.83;;
40449;SDS011;41787;53.570;10.032;2023-02-15T05:13:00;77.32;;;33.13;;
40449;SDS011;41787;53.570;10.032;2023-02-15T05:15:26;87.07;;;34.80;;
40449;SDS011;41787;53.570;10.032;2023-02-15T05:17:52;100.82;;;33.20;;
40449;SDS011;41787;53.570;10.032;2023-02-15T05:20:18;71.90;;;32.78;;
40449;SDS011;41787;53.570;10.032;2023-02-15T05:22:44;82.72;;;31.65;;
40449;SDS011;41787;53.570;10.032;2023-02-15T05:25:10;67.82;;;30.27;;
40449;SDS011;41787;53.570;10.032;2023-02-15T05:27:54;83.68;;;31.20;;
40449;SDS011;41787;53.570;10.032;2023-02-15T05:30:39;69.63;;;32.33;;
40449;SDS011;41787;53.570;10.032;2023-02-15T05:33:06;67.95;;;30.83;;
40449;SDS011;41787;53.570;10.032;2023-02-15T05:35:32;73.07;;;30.42;;
40449;SDS011;41787;53.570;10.032;2023-02-15T05:37:58;80.25;;;32.60;;
40449;SDS011;41787;53.570;10.032;2023-02-15T05:40:24;82.50;;;31.15;;
40449;SDS011;41787;53.570;10.032;2023-02-15T05:42:50;93.28;;;33.25;;
40449;SDS011;41787;53.570;10.032;2023-02-15T05:45:16;76.50;;;32.17;;
40449;SDS011;41787;53.570;10.032;2023-02-15T05:47:42;87.45;;;31.95;;
40449;SDS011;41787;53.570;10.032;2023-02-15T05:50:08;82.65;;;31.45;;
40449;SDS011;41787;53.570;10.032;2023-02-15T05:52:35;75.63;;;33.13;;
40449;SDS011;41787;53.570;10.032;2023-02-15T05:55:01;73.43;;;30.75;;
40449;SDS011;41787;53.570;10.032;2023-02-15T05:57:28;75.97;;;33.53;;
40449;SDS011;41787;53.570;10.032;2023-02-15T05:59:54;79.57;;;30.52;;
40449;SDS011;41787;53.570;10.032;2023-02-15T06:02:20;85.72;;;30.85;;
40449;SDS011;41787;53.570;10.032;2023-02-15T06:04:46;96.68;;;31.17;;
40449;SDS011;41787;53.570;10.032;2023-02-15T06:20:50;68.40;;;31.10;;
40449;SDS011;41787;53.570;10.032;2023-02-15T06:23:36;88.95;;;29.30;;
40449;SDS011;41787;53.570;10.032;2023-02-15T06:26:02;78.00;;;32.58;;
40449;SDS011;41787;53.570;10.032;2023-02-15T06:28:28;76.28;;;31.77;;
40449;SDS011;41787;53.570;10.032;2023-02-15T06:30:54;99.53;;;32.65;;
40449;SDS011;41787;53.570;10.032;2023-02-15T06:33:26;110.03;;;31.95;;
40449;SDS011;41787;53.570;10.032;2023-02-15T06:35:52;84.53;;;31.70;;
40449;SDS011;41787;53.570;10.032;2023-02-15T06:38:17;92.97;;;32.42;;
40449;SDS011;41787;53.570;10.032;2023-02-15T06:40:43;77.57;;;33.03;;
40449;SDS011;41787;53.570;10.032;2023-02-15T06:43:09;69.45;;;30.88;;
40449;SDS011;41787;53.570;10.032;2023-02-15T06:45:35;75.60;;;31.15;;
40449;SDS011;41787;53.570;10.032;2023-02-15T06:48:01;64.30;;;30.17;;
40449;SDS011;41787;53.570;10.032;2023-02-15T06:50:27;76.70;;;28.80;;
40449;SDS011;41787;53.570;10.032;2023-02-15T06:52:57;66.13;;;30.15;;
40449;SDS011;41787;53.570;10.032;2023-02-15T06:55:23;67.75;;;31.30;;
40449;SDS011;41787;53.570;10.032;2023-02-15T06:57:49;71.05;;;31.17;;
40449;SDS011;41787;53.570;10.032;2023-02-15T07:00:15;68.38;;;30.45;;
40449;SDS011;41787;53.570;10.032;2023-02-15T07:02:42;165.05;;;31.88;;
40449;SDS011;41787;53.570;10.032;2023-02-15T07:05:08;91.72;;;30.77;;
40449;SDS011;41787;53.570;10.032;2023-02-15T07:07:34;77.78;;;31.42;;
40449;SDS011;41787;53.570;10.032;2023-02-15T07:10:00;126.95;;;32.00;;
40449;SDS011;41787;53.570;10.032;2023-02-15T07:12:26;65.68;;;29.70;;
40449;SDS011;41787;53.570;10.032;2023-02-15T07:15:09;89.75;;;31.60;;
40449;SDS011;41787;53.570;10.032;2023-02-15T07:17:36;65.43;;;30.55;;
40449;SDS011;41787;53.570;10.032;2023-02-15T07:20:10;83.82;;;31.38;;
40449;SDS011;41787;53.570;10.032;2023-02-15T07:22:36;107.28;;;30.48;;
40449;SDS011;41787;53.570;10.032;2023-02-15T07:25:06;62.00;;;31.02;;
40449;SDS011;41787;53.570;10.032;2023-02-15T07:27:32;61.72;;;29.67;;
40449;SDS011;41787;53.570;10.032;2023-02-15T07:29:59;72.22;;;31.75;;
40449;SDS011;41787;53.570;10.032;2023-02-15T07:32:29;81.80;;;31.65;;
40449;SDS011;41787;53.570;10.032;2023-02-15T07:37:21;60.05;;;28.88;;
40449;SDS011;41787;53.570;10.032;2023-02-15T07:39:49;102.80;;;30.83;;
40449;SDS011;41787;53.570;10.032;2023-02-15T07:42:15;66.95;;;29.42;;
40449;SDS011;41787;53.570;10.032;2023-02-15T07:44:42;66.63;;;30.35;;
40449;SDS011;41787;53.570;10.032;2023-02-15T07:47:08;69.95;;;30.88;;
40449;SDS011;41787;53.570;10.032;2023-02-15T07:49:35;57.47;;;29.88;;
40449;SDS011;41787;53.570;10.032;2023-02-15T07:52:01;64.55;;;31.15;;
40449;SDS011;41787;53.570;10.032;2023-02-15T07:54:27;78.68;;;32.15;;
40449;SDS011;41787;53.570;10.032;2023-02-15T07:56:53;77.13;;;30.52;;
40449;SDS011;41787;53.570;10.032;2023-02-15T07:59:19;111.50;;;30.27;;
40449;SDS011;41787;53.570;10.032;2023-02-15T08:01:45;76.10;;;28.80;;
40449;SDS011;41787;53.570;10.032;2023-02-15T08:04:11;86.53;;;31.30;;
40449;SDS011;41787;53.570;10.032;2023-02-15T08:06:37;72.70;;;29.95;;
40449;SDS011;41787;53.570;10.032;2023-02-15T08:09:07;56.17;;;27.05;;
40449;SDS011;41787;53.570;10.032;2023-02-15T08:11:34;51.80;;;25.70;;
40449;SDS011;41787;53.570;10.032;2023-02-15T08:14:11;58.17;;;26.58;;
40449;SDS011;41787;53.570;10.032;2023-02-15T08:19:08;85.25;;;26.83;;
40449;SDS011;41787;53.570;10.032;2023-02-15T08:21:39;48.03;;;27.67;;
40449;SDS011;41787;53.570;10.032;2023-02-15T08:24:05;58.05;;;27.40;;
40449;SDS011;41787;53.570;10.032;2023-02-15T08:26:41;65.45;;;28.13;;
40449;SDS011;41787;53.570;10.032;2023-02-15T08:29:27;62.35;;;28.60;;
40449;SDS011;41787;53.570;10.032;2023-02-15T08:32:00;65.18;;;29.50;;
40449;SDS011;41787;53.570;10.032;2023-02-15T08:34:28;61.30;;;30.38;;
40449;SDS011;41787;53.570;10.032;2023-02-15T08:36:55;63.08;;;28.92;;
40449;SDS011;41787;53.570;10.032;2023-02-15T08:39:24;52.17;;;28.97;;
40449;SDS011;41787;53.570;10.032;2023-02-15T08:41:50;64.15;;;30.15;;
40449;SDS011;41787;53.570;10.032;2023-02-15T08:44:18;64.60;;;30.10;;
40449;SDS011;41787;53.570;10.032;2023-02-15T08:46:46;50.90;;;28.00;;
40449;SDS011;41787;53.570;10.032;2023-02-15T08:49:13;91.45;;;33.10;;
40449;SDS011;41787;53.570;10.032;2023-02-15T08:51:39;56.33;;;27.48;;
40449;SDS011;41787;53.570;10.032;2023-02-15T08:54:06;73.70;;;33.35;;
40449;SDS011;41787;53.570;10.032;2023-02-15T08:56:34;60.35;;;30.85;;
40449;SDS011;41787;53.570;10.032;2023-02-15T08:59:00;64.93;;;30.40;;
40449;SDS011;41787;53.570;10.032;2023-02-15T09:01:30;88.28;;;30.83;;
40449;SDS011;41787;53.570;10.032;2023-02-15T09:03:58;69.30;;;30.00;;
40449;SDS011;41787;53.570;10.032;2023-02-15T09:06:24;64.50;;;29.73;;
40449;SDS011;41787;53.570;10.032;2023-02-15T09:08:50;67.38;;;29.95;;
40449;SDS011;41787;53.570;10.032;2023-02-15T09:11:17;54.53;;;27.83;;
40449;SDS011;41787;53.570;10.032;2023-02-15T09:13:53;62.05;;;26.83;;
40449;SDS011;41787;53.570;10.032;2023-02-15T09:16:20;60.30;;;28.25;;
40449;SDS011;41787;53.570;10.032;2023-02-15T09:18:46;49.53;;;27.27;;
40449;SDS011;41787;53.570;10.032;2023-02-15T09:21:16;56.05;;;27.23;;
40449;SDS011;41787;53.570;10.032;2023-02-15T09:23:43;47.53;;;25.25;;
40449;SDS011;41787;53.570;10.032;2023-02-15T09:26:10;44.35;;;24.40;;
40449;SDS011;41787;53.570;10.032;2023-02-15T09:28:36;37.88;;;22.10;;
40449;SDS011;41787;53.570;10.032;2023-02-15T09:31:16;50.05;;;27.02;;
40449;SDS011;41787;53.570;10.032;2023-02-15T09:33:43;46.58;;;25.67;;
40449;SDS011;41787;53.570;10.032;2023-02-15T09:36:14;45.75;;;24.50;;
40449;SDS011;41787;53.570;10.032;2023-02-15T09:38:40;48.42;;;25.58;;
40449;SDS011;41787;53.570;10.032;2023-02-15T09:46:39;55.22;;;27.55;;
40449;SDS011;41787;53.570;10.032;2023-02-15T09:49:22;49.45;;;26.63;;
40449;SDS011;41787;53.570;10.032;2023-02-15T09:52:02;49.38;;;26.88;;
40449;SDS011;41787;53.570;10.032;2023-02-15T09:57:00;49.25;;;26.20;;
40449;SDS011;41787;53.570;10.032;2023-02-15T09:59:34;43.38;;;25.20;;
40449;SDS011;41787;53.570;10.032;2023-02-15T10:02:08;47.05;;;25.65;;
40449;SDS011;41787;53.570;10.032;2023-02-15T10:04:54;45.53;;;24.67;;
40449;SDS011;41787;53.570;10.032;2023-02-15T10:10:14;47.58;;;25.85;;
40449;SDS011;41787;53.570;10.032;2023-02-15T10:12:49;46.60;;;26.15;;
40449;SDS011;41787;53.570;10.032;2023-02-15T10:15:42;53.92;;;26.92;;
40449;SDS011;41787;53.570;10.032;2023-02-15T10:18:33;61.10;;;24.95;;
40449;SDS011;41787;53.570;10.032;2023-02-15T10:21:05;52.42;;;25.55;;
40449;SDS011;41787;53.570;10.032;2023-02-15T10:26:22;48.50;;;25.77;;
40449;SDS011;41787;53.570;10.032;2023-02-15T10:28:54;44.42;;;25.20;;
40449;SDS011;41787;53.570;10.032;2023-02-15T10:31:41;41.92;;;24.10;;
40449;SDS011;41787;53.570;10.032;2023-02-15T10:34:19;44.78;;;25.08;;
40449;SDS011;41787;53.570;10.032;2023-02-15T10:39:19;46.75;;;25.30;;
40449;SDS011;41787;53.570;10.032;2023-02-15T10:44:52;48.10;;;24.98;;
40449;SDS011;41787;53.570;10.032;2023-02-15T10:47:26;43.05;;;25.35;;
40449;SDS011;41787;53.570;10.032;2023-02-15T10:52:25;44.97;;;25.55;;
40449;SDS011;41787;53.570;10.032;2023-02-15T10:55:02;48.78;;;25.92;;
40449;SDS011;41787;53.570;10.032;2023-02-15T10:57:33;48.58;;;25.98;;
40449;SDS011;41787;53.570;10.032;2023-02-15T11:02:52;49.83;;;28.17;;
40449;SDS011;41787;53.570;10.032;2023-02-15T11:05:29;45.22;;;27.27;;
40449;SDS011;41787;53.570;10.032;2023-02-15T11:08:02;43.83;;;25.92;;
40449;SDS011;41787;53.570;10.032;2023-02-15T11:10:35;43.13;;;26.65;;
40449;SDS011;41787;53.570;10.032;2023-02-15T11:13:03;48.78;;;27.00;;
40449;SDS011;41787;53.570;10.032;2023-02-15T11:15:48;44.17;;;24.40;;
40449;SDS011;41787;53.570;10.032;2023-02-15T11:20:50;47.70;;;26.88;;
40449;SDS011;41787;53.570;10.032;2023-02-15T11:23:19;48.17;;;25.85;;
40449;SDS011;41787;53.570;10.032;2023-02-15T11:25:46;51.17;;;27.98;;
40449;SDS011;41787;53.570;10.032;2023-02-15T11:28:18;49.35;;;29.20;;
40449;SDS011;41787;53.570;10.032;2023-02-15T11:30:49;47.60;;;27.33;;
40449;SDS011;41787;53.570;10.032;2023-02-15T11:33:21;49.90;;;27.50;;
40449;SDS011;41787;53.570;10.032;2023-02-15T11:38:16;53.92;;;29.73;;
40449;SDS011;41787;53.570;10.032;2023-02-15T11:40:46;57.50;;;27.98;;
40449;SDS011;41787;53.570;10.032;2023-02-15T11:43:14;46.95;;;28.88;;
40449;SDS011;41787;53.570;10.032;2023-02-15T11:45:46;53.85;;;28.63;;
40449;SDS011;41787;53.570;10.032;2023-02-15T11:48:14;51.13;;;27.27;;
40449;SDS011;41787;53.570;10.032;2023-02-15T11:50:41;51.13;;;29.85;;
40449;SDS011;41787;53.570;10.032;2023-02-15T11:53:12;54.22;;;29.58;;
40449;SDS011;41787;53.570;10.032;2023-02-15T11:55:39;56.85;;;29.33;;
40449;SDS011;41787;53.570;10.032;2023-02-15T11:58:12;53.97;;;30.40;;
40449;SDS011;41787;53.570;10.032;2023-02-15T12:00:42;58.60;;;32.25;;
40449;SDS011;41787;53.570;10.032;2023-02-15T12:03:11;50.88;;;28.77;;
40449;SDS011;41787;53.570;10.032;2023-02-15T12:05:39;53.40;;;30.38;;
40449;SDS011;41787;53.570;10.032;2023-02-15T12:08:11;59.25;;;30.55;;
40449;SDS011;41787;53.570;10.032;2023-02-15T12:10:40;56.00;;;31.60;;
40449;SDS011;41787;53.570;10.032;2023-02-15T12:13:09;53.72;;;31.08;;
40449;SDS011;41787;53.570;10.032;2023-02-15T12:15:36;56.42;;;30.25;;
40449;SDS011;41787;53.570;10.032;2023-02-15T12:18:02;48.58;;;29.48;;
40449;SDS011;41787;53.570;10.032;2023-02-15T12:20:32;55.70;;;31.17;;
40449;SDS011;41787;53.570;10.032;2023-02-15T12:22:59;55.50;;;30.83;;
40449;SDS011;41787;53.570;10.032;2023-02-15T12:25:33;53.53;;;30.63;;
40449;SDS011;41787;53.570;10.032;2023-02-15T12:28:01;56.20;;;30.63;;
40449;SDS011;41787;53.570;10.032;2023-02-15T12:30:29;52.38;;;30.52;;
40449;SDS011;41787;53.570;10.032;2023-02-15T12:32:57;52.22;;;31.05;;
40449;SDS011;41787;53.570;10.032;2023-02-15T12:35:29;53.67;;;31.20;;
40449;SDS011;41787;53.570;10.032;2023-02-15T12:37:57;56.35;;;32.30;;
40449;SDS011;41787;53.570;10.032;2023-02-15T12:40:25;61.78;;;33.15;;
40449;SDS011;41787;53.570;10.032;2023-02-15T12:42:52;57.35;;;31.50;;
40449;SDS011;41787;53.570;10.032;2023-02-15T12:45:22;61.42;;;31.80;;
40449;SDS011;41787;53.570;10.032;2023-02-15T12:48:07;50.28;;;30.77;;
40449;SDS011;41787;53.570;10.032;2023-02-15T12:50:33;52.40;;;31.73;;
40449;SDS011;41787;53.570;10.032;2023-02-15T12:53:34;51.35;;;31.02;;
40449;SDS011;41787;53.570;10.032;2023-02-15T12:56:05;51.22;;;31.20;;
40449;SDS011;41787;53.570;10.032;2023-02-15T12:58:32;57.67;;;32.63;;
40449;SDS011;41787;53.570;10.032;2023-02-15T13:03:27;55.45;;;31.70;;
40449;SDS011;41787;53.570;10.032;2023-02-15T13:05:56;57.13;;;30.83;;
40449;SDS011;41787;53.570;10.032;2023-02-15T13:08:30;58.88;;;33.00;;
40449;SDS011;41787;53.570;10.032;2023-02-15T13:11:02;54.92;;;32.30;;
40449;SDS011;41787;53.570;10.032;2023-02-15T13:13:29;51.13;;;30.77;;
40449;SDS011;41787;53.570;10.032;2023-02-15T13:15:58;53.50;;;31.25;;
40449;SDS011;41787;53.570;10.032;2023-02-15T13:18:28;51.42;;;30.80;;
40449;SDS011;41787;53.570;10.032;2023-02-15T13:20:55;46.40;;;28.90;;
40449;SDS011;41787;53.570;10.032;2023-02-15T13:23:28;56.03;;;31.67;;
40449;SDS011;41787;53.570;10.032;2023-02-15T13:25:56;46.83;;;30.05;;
40449;SDS011;41787;53.570;10.032;2023-02-15T13:28:25;49.92;;;31.15;;
40449;SDS011;41787;53.570;10.032;2023-02-15T13:30:53;53.30;;;31.00;;
40449;SDS011;41787;53.570;10.032;2023-02-15T13:33:22;49.47;;;30.83;;
40449;SDS011;41787;53.570;10.032;2023-02-15T13:36:11;52.30;;;29.23;;
40449;SDS011;41787;53.570;10.032;2023-02-15T13:38:45;47.50;;;29.15;;
40449;SDS011;41787;53.570;10.032;2023-02-15T13:41:23;43.47;;;28.42;;
40449;SDS011;41787;53.570;10.032;2023-02-15T13:44:07;45.53;;;27.88;;
40449;SDS011;41787;53.570;10.032;2023-02-15T13:49:32;35.78;;;24.15;;
40449;SDS011;41787;53.570;10.032;2023-02-15T13:52:07;41.70;;;24.98;;
40449;SDS011;41787;53.570;10.032;2023-02-15T13:54:53;40.20;;;23.15;;
40449;SDS011;41787;53.570;10.032;2023-02-15T14:07:50;32.95;;;21.38;;
40449;SDS011;41787;53.570;10.032;2023-02-15T14:18:35;32.65;;;22.02;;
40449;SDS011;41787;53.570;10.032;2023-02-15T14:21:13;31.92;;;21.63;;
40449;SDS011;41787;53.570;10.032;2023-02-15T14:23:43;30.77;;;23.08;;
40449;SDS011;41787;53.570;10.032;2023-02-15T14:26:14;34.08;;;23.30;;
40449;SDS011;41787;53.570;10.032;2023-02-15T14:31:38;35.30;;;21.92;;
40449;SDS011;41787;53.570;10.032;2023-02-15T14:34:08;34.20;;;22.17;;
40449;SDS011;41787;53.570;10.032;2023-02-15T14:36:41;34.80;;;22.02;;
40449;SDS011;41787;53.570;10.032;2023-02-15T14:41:59;37.90;;;22.98;;
40449;SDS011;41787;53.570;10.032;2023-02-15T14:44:42;33.83;;;22.38;;
40449;SDS011;41787;53.570;10.032;2023-02-15T14:47:13;36.47;;;23.50;;
40449;SDS011;41787;53.570;10.032;2023-02-15T14:49:43;33.10;;;21.95;;
40449;SDS011;41787;53.570;10.032;2023-02-15T14:52:10;31.02;;;22.00;;
40449;SDS011;41787;53.570;10.032;2023-02-15T14:59:38;32.92;;;21.15;;
40449;SDS011;41787;53.570;10.032;2023-02-15T15:04:35;32.90;;;23.13;;
40449;SDS011;41787;53.570;10.032;2023-02-15T15:07:04;32.70;;;23.00;;
40449;SDS011;41787;53.570;10.032;2023-02-15T15:09:34;31.40;;;22.17;;
40449;SDS011;41787;53.570;10.032;2023-02-15T15:14:46;33.25;;;21.77;;
40449;SDS011;41787;53.570;10.032;2023-02-15T15:20:04;33.90;;;22.27;;
40449;SDS011;41787;53.570;10.032;2023-02-15T15:22:33;32.42;;;22.20;;
40449;SDS011;41787;53.570;10.032;2023-02-15T15:25:00;35.88;;;22.48;;
40449;SDS011;41787;53.570;10.032;2023-02-15T15:33:17;33.17;;;22.38;;
40449;SDS011;41787;53.570;10.032;2023-02-15T15:36:01;37.58;;;22.73;;
40449;SDS011;41787;53.570;10.032;2023-02-15T15:49:09;34.17;;;22.48;;
40449;SDS011;41787;53.570;10.032;2023-02-15T15:51:37;36.45;;;23.75;;
40449;SDS011;41787;53.570;10.032;2023-02-15T15:54:04;38.53;;;23.63;;
40449;SDS011;41787;53.570;10.032;2023-02-15T15:56:34;33.70;;;23.25;;
40449;SDS011;41787;53.570;10.032;2023-02-15T15:59:02;34.97;;;21.83;;
40449;SDS011;41787;53.570;10.032;2023-02-15T16:01:30;37.13;;;22.88;;
40449;SDS011;41787;53.570;10.032;2023-02-15T16:03:57;34.78;;;22.08;;
40449;SDS011;41787;53.570;10.032;2023-02-15T16:06:31;36.53;;;22.20;;
40449;SDS011;41787;53.570;10.032;2023-02-15T16:09:08;33.60;;;20.77;;
40449;SDS011;41787;53.570;10.032;2023-02-15T16:11:34;34.13;;;22.55;;
40449;SDS011;41787;53.570;10.032;2023-02-15T16:14:46;33.35;;;21.83;;
40449;SDS011;41787;53.570;10.032;2023-02-15T16:16:54;33.80;;;22.42;;
40449;SDS011;41787;53.570;10.032;2023-02-15T16:19:26;33.65;;;21.92;;
40449;SDS011;41787;53.570;10.032;2023-02-15T16:21:59;32.40;;;22.30;;
40449;SDS011;41787;53.570;10.032;2023-02-15T16:24:38;32.67;;;21.55;;
40449;SDS011;41787;53.570;10.032;2023-02-15T16:27:22;37.10;;;22.70;;
40449;SDS011;41787;53.570;10.032;2023-02-15T16:29:51;35.13;;;22.10;;
40449;SDS011;41787;53.570;10.032;2023-02-15T16:32:23;38.45;;;25.77;;
40449;SDS011;41787;53.570;10.032;2023-02-15T16:34:57;33.95;;;22.80;;
40449;SDS011;41787;53.570;10.032;2023-02-15T16:37:24;37.05;;;24.45;;
40449;SDS011;41787;53.570;10.032;2023-02-15T16:39:52;34.40;;;22.08;;
40449;SDS011;41787;53.570;10.032;2023-02-15T16:42:18;36.50;;;23.67;;
40449;SDS011;41787;53.570;10.032;2023-02-15T16:44:47;39.13;;;23.67;;
40449;SDS011;41787;53.570;10.032;2023-02-15T16:47:15;40.83;;;24.35;;